Time;durP1;ratioP1;P1;durP2;ratioP2;P2;SDS_P1;SDS_P2;PMS_P1;PMS_P2;Temp;Humidity;BMP_temperature;BMP_pressure;BME280_temperature;BME280_humidity;BME280_pressure;Samples;Min_cycle;Max_cycle;Signal;HPM_P1;HPM_P2
2022/12/22 03:28:18;;;;;;;49.20;30.08;;;8.60;99.90;;;;;;5000181;28;20034;-41
2022/12/22 03:30:43;;;;;;;49.85;28.83;;;8.60;99.90;;;;;;5026053;28;20065;-41
2022/12/22 03:33:09;;;;;;;53.55;30.33;;;8.60;99.90;;;;;;5017572;28;20111;-39
2022/12/22 03:35:35;;;;;;;47.90;29.45;;;8.60;99.90;;;;;;5006131;28;20507;-38
2022/12/22 03:38:02;;;;;;;49.30;29.08;;;8.70;99.90;;;;;;5016532;28;20125;-38
2022/12/22 03:40:30;;;;;;;50.30;29.35;;;8.60;99.90;;;;;;5011439;28;20042;-38
2022/12/22 03:48:24;;;;;;;61.50;31.85;;;8.60;99.90;;;;;;5019636;28;20546;-36
2022/12/22 03:50:50;;;;;;;47.25;28.77;;;8.70;99.90;;;;;;5024632;28;20044;-35
2022/12/22 03:53:15;;;;;;;48.90;29.30;;;8.60;99.90;;;;;;5024970;28;20095;-36
2022/12/22 03:55:41;;;;;;;48.88;28.83;;;8.60;99.90;;;;;;5051624;23;20037;-81
2022/12/22 03:58:07;;;;;;;49.38;28.50;;;8.70;99.90;;;;;;5021467;28;20042;-81
2022/12/22 04:00:32;;;;;;;55.70;30.95;;;8.70;99.90;;;;;;5026666;28;20040;-79
2022/12/22 04:02:58;;;;;;;50.53;28.30;;;8.70;99.90;;;;;;5019961;28;20655;-79
2022/12/22 04:05:24;;;;;;;58.50;30.98;;;8.70;99.90;;;;;;5030866;28;20051;-81
2022/12/22 04:07:50;;;;;;;52.80;30.13;;;8.70;99.90;;;;;;5030280;28;20432;-79
2022/12/22 04:13:00;;;;;;;48.28;27.83;;;8.70;99.90;;;;;;5022790;28;20125;-79
2022/12/22 04:15:31;;;;;;;49.45;28.48;;;8.70;99.90;;;;;;5021297;28;20111;-79
2022/12/22 04:17:57;;;;;;;50.38;28.65;;;8.70;99.90;;;;;;5031651;28;20042;-79
2022/12/22 04:20:28;;;;;;;52.08;29.15;;;8.70;99.90;;;;;;5027516;28;20121;-79
2022/12/22 04:22:55;;;;;;;49.33;27.05;;;8.70;99.90;;;;;;5016520;28;20571;-79
2022/12/22 04:25:21;;;;;;;50.20;30.30;;;8.70;99.90;;;;;;5027682;28;20037;-79
2022/12/22 04:27:46;;;;;;;52.28;29.92;;;8.70;99.90;;;;;;5033042;28;20401;-79
2022/12/22 04:30:13;;;;;;;53.20;29.08;;;8.70;99.90;;;;;;5026988;28;20033;-79
2022/12/22 04:32:38;;;;;;;52.55;29.58;;;8.70;99.90;;;;;;5035516;28;20048;-79
2022/12/22 04:35:05;;;;;;;59.28;31.27;;;8.70;99.90;;;;;;5026326;28;20037;-79
2022/12/22 04:37:31;;;;;;;51.55;28.85;;;8.70;99.90;;;;;;5030887;28;20490;-79
2022/12/22 04:39:56;;;;;;;51.63;29.35;;;8.70;99.90;;;;;;5018864;28;20040;-79
2022/12/22 04:42:22;;;;;;;44.88;26.92;;;8.70;99.90;;;;;;5026776;28;20429;-79
2022/12/22 04:44:49;;;;;;;53.22;29.42;;;8.70;99.90;;;;;;5028058;28;20032;-79
2022/12/22 04:47:14;;;;;;;56.00;31.23;;;8.70;99.90;;;;;;5032245;28;20061;-79
2022/12/22 04:49:40;;;;;;;57.95;30.88;;;8.80;99.90;;;;;;5020279;28;20045;-79
2022/12/22 04:52:06;;;;;;;54.33;31.10;;;8.70;99.90;;;;;;5035501;28;20040;-81
2022/12/22 04:54:32;;;;;;;58.38;31.85;;;8.70;99.90;;;;;;5030360;28;20063;-79
2022/12/22 04:56:58;;;;;;;51.55;28.05;;;8.70;99.90;;;;;;5016925;28;20045;-79
2022/12/22 04:59:23;;;;;;;57.03;29.92;;;8.70;99.90;;;;;;5029001;28;20521;-79
2022/12/22 05:01:49;;;;;;;59.33;31.13;;;8.70;99.90;;;;;;5026631;28;20068;-79
2022/12/22 05:04:15;;;;;;;60.58;31.38;;;8.70;99.90;;;;;;5030276;28;20093;-79
2022/12/22 05:06:41;;;;;;;53.97;30.42;;;8.70;99.90;;;;;;5019639;28;20444;-79
2022/12/22 05:09:06;;;;;;;53.97;31.13;;;8.70;99.90;;;;;;5030074;28;20041;-79
2022/12/22 05:11:32;;;;;;;48.03;28.20;;;8.70;99.90;;;;;;5027310;28;20041;-79
2022/12/22 05:13:58;;;;;;;70.03;32.53;;;8.70;99.90;;;;;;5018116;28;20402;-79
2022/12/22 05:16:23;;;;;;;78.05;33.33;;;8.70;99.90;;;;;;5024978;28;20069;-79
2022/12/22 05:18:49;;;;;;;54.45;29.55;;;8.70;99.90;;;;;;5015644;28;20421;-79
2022/12/22 05:21:18;;;;;;;56.88;30.25;;;8.70;99.90;;;;;;5024039;28;20034;-79
2022/12/22 05:23:44;;;;;;;62.25;32.88;;;8.70;99.90;;;;;;5029389;28;20044;-79
2022/12/22 05:26:10;;;;;;;55.88;30.20;;;8.70;99.90;;;;;;5030899;28;20045;-79
2022/12/22 05:28:36;;;;;;;59.95;31.77;;;8.70;99.90;;;;;;5028492;28;20042;-79
2022/12/22 05:31:06;;;;;;;70.88;33.88;;;8.70;99.90;;;;;;5025702;28;20083;-80
2022/12/22 05:33:32;;;;;;;57.17;29.55;;;8.70;99.90;;;;;;5029317;28;20079;-79
2022/12/22 05:35:58;;;;;;;59.28;31.35;;;8.70;99.90;;;;;;5025747;28;20073;-79
2022/12/22 05:38:23;;;;;;;55.42;31.60;;;8.70;99.90;;;;;;5033030;28;20068;-79
2022/12/22 05:40:49;;;;;;;62.42;30.75;;;8.70;99.90;;;;;;5012387;28;20063;-79
2022/12/22 05:43:15;;;;;;;71.07;34.42;;;8.70;99.90;;;;;;5024372;28;20240;-79
2022/12/22 05:45:44;;;;;;;57.88;30.75;;;8.70;99.90;;;;;;5028288;28;20310;-79
2022/12/22 05:48:10;;;;;;;60.13;30.65;;;8.70;99.90;;;;;;5033457;28;20068;-79
2022/12/22 05:50:36;;;;;;;53.90;29.35;;;8.70;99.90;;;;;;5023225;28;20386;-79
2022/12/22 05:53:01;;;;;;;61.17;30.50;;;8.70;99.90;;;;;;5025666;28;20043;-81
2022/12/22 05:55:27;;;;;;;63.55;32.00;;;8.70;99.90;;;;;;5014979;28;20566;-79
2022/12/22 05:57:53;;;;;;;58.72;30.25;;;8.70;99.90;;;;;;5032443;28;20460;-79
2022/12/22 06:00:19;;;;;;;67.45;34.58;;;8.70;99.90;;;;;;5011837;28;20520;-79
2022/12/22 06:02:45;;;;;;;74.05;34.45;;;8.70;99.90;;;;;;5026446;28;20037;-79
2022/12/22 06:05:12;;;;;;;104.35;52.58;;;8.70;99.90;;;;;;5007717;28;20510;-79
2022/12/22 06:07:38;;;;;;;64.03;34.17;;;8.70;99.90;;;;;;5024217;28;20112;-79
2022/12/22 06:10:05;;;;;;;69.18;37.97;;;8.70;99.90;;;;;;5034024;28;20091;-79
2022/12/22 06:12:31;;;;;;;63.63;33.92;;;8.60;99.90;;;;;;5034153;28;20426;-79
2022/12/22 06:14:57;;;;;;;63.65;33.53;;;8.60;99.90;;;;;;5026521;28;20114;-79
2022/12/22 06:17:22;;;;;;;56.92;30.60;;;8.70;99.90;;;;;;5014979;28;20265;-79
2022/12/22 06:19:48;;;;;;;52.97;29.27;;;8.70;99.90;;;;;;5021723;28;20033;-79
2022/12/22 06:22:13;;;;;;;59.45;29.10;;;8.60;99.90;;;;;;5021363;28;20260;-79
2022/12/22 06:24:39;;;;;;;57.05;29.73;;;8.60;99.90;;;;;;5012875;28;20037;-79
2022/12/22 06:27:05;;;;;;;52.83;27.55;;;8.60;99.90;;;;;;5017747;28;20037;-80
2022/12/22 06:29:30;;;;;;;45.83;25.80;;;8.60;99.90;;;;;;5031791;28;20033;-80
2022/12/22 06:31:56;;;;;;;56.75;28.40;;;8.60;99.90;;;;;;5049501;28;20104;-79
2022/12/22 06:34:22;;;;;;;45.63;25.95;;;8.70;99.90;;;;;;5024471;28;20033;-79
2022/12/22 06:36:47;;;;;;;56.63;29.23;;;8.70;99.90;;;;;;5015517;28;20036;-79
2022/12/22 06:39:15;;;;;;;54.83;27.15;;;8.70;99.90;;;;;;5033932;28;20037;-84
2022/12/22 06:44:26;;;;;;;56.20;27.67;;;8.70;99.90;;;;;;5027546;28;20046;-80
2022/12/22 06:46:52;;;;;;;56.75;28.48;;;8.70;99.90;;;;;;5026262;28;20055;-80
2022/12/22 06:49:18;;;;;;;54.80;28.02;;;8.70;99.90;;;;;;5029314;28;20391;-80
2022/12/22 06:51:44;;;;;;;55.97;27.33;;;8.70;99.90;;;;;;5017757;28;20516;-80
2022/12/22 06:54:10;;;;;;;57.90;27.45;;;8.70;99.90;;;;;;5004399;28;20041;-81
2022/12/22 06:56:35;;;;;;;55.42;25.85;;;8.70;99.90;;;;;;5006792;28;20626;-82
2022/12/22 06:59:01;;;;;;;59.20;27.95;;;8.60;99.90;;;;;;5003039;28;20085;-81
2022/12/22 07:01:27;;;;;;;66.20;28.73;;;8.70;99.90;;;;;;5029114;28;20489;-81
2022/12/22 07:03:52;;;;;;;66.30;27.60;;;8.70;99.90;;;;;;5025111;28;20033;-81
2022/12/22 07:06:18;;;;;;;58.25;24.98;;;8.60;99.90;;;;;;5034537;28;20068;-82
2022/12/22 07:08:44;;;;;;;56.72;26.00;;;8.60;99.90;;;;;;5035037;28;20455;-80
2022/12/22 07:11:10;;;;;;;59.15;26.55;;;8.60;99.90;;;;;;5035267;28;20056;-81
2022/12/22 07:13:36;;;;;;;59.50;26.65;;;8.60;99.90;;;;;;5033892;28;20037;-81
2022/12/22 07:16:03;;;;;;;59.35;25.13;;;8.60;99.90;;;;;;5039900;28;20049;-79
2022/12/22 07:18:31;;;;;;;60.33;25.75;;;8.50;99.90;;;;;;5007346;28;20128;-81
2022/12/22 07:20:57;;;;;;;58.78;26.05;;;8.50;99.90;;;;;;5020588;28;20041;-80
2022/12/22 07:23:24;;;;;;;57.50;25.48;;;8.40;99.90;;;;;;5033894;28;20082;-79
2022/12/22 07:25:50;;;;;;;57.38;25.58;;;8.50;99.90;;;;;;5026835;28;20056;-80
2022/12/22 07:28:15;;;;;;;63.85;27.70;;;8.30;99.90;;;;;;5016799;28;20024;-81
2022/12/22 07:30:41;;;;;;;75.25;28.38;;;8.20;99.90;;;;;;5031496;28;20036;-83
2022/12/22 07:33:07;;;;;;;70.00;27.55;;;8.20;99.90;;;;;;5021323;28;20435;-80
2022/12/22 07:35:32;;;;;;;70.30;26.08;;;8.10;99.90;;;;;;5022629;28;20034;-79
2022/12/22 07:37:58;;;;;;;59.20;25.83;;;8.00;99.90;;;;;;5006959;28;20465;-79
2022/12/22 07:40:23;;;;;;;55.65;24.77;;;8.00;99.90;;;;;;5024144;28;20072;-79
2022/12/22 07:42:49;;;;;;;56.40;25.20;;;7.80;99.90;;;;;;5036760;28;20406;-79
2022/12/22 07:45:19;;;;;;;66.97;25.85;;;7.70;99.90;;;;;;5022826;28;20068;-79
2022/12/22 07:47:45;;;;;;;46.25;22.52;;;7.60;99.90;;;;;;5018687;28;20121;-80
2022/12/22 07:50:31;;;;;;;58.83;23.90;;;7.60;99.90;;;;;;5028285;28;20044;-79
2022/12/22 07:53:03;;;;;;;62.88;26.33;;;7.50;99.90;;;;;;5024056;28;20052;-80
2022/12/22 07:55:34;;;;;;;81.07;30.05;;;7.40;99.90;;;;;;5037869;28;20040;-80
2022/12/22 07:57:59;;;;;;;98.85;32.22;;;7.30;99.90;;;;;;5022878;28;20498;-80
2022/12/22 08:00:25;;;;;;;78.93;30.02;;;7.30;99.90;;;;;;5036319;28;20064;-79
2022/12/22 08:02:55;;;;;;;75.97;32.17;;;7.20;99.90;;;;;;5022029;28;20064;-80
2022/12/22 08:05:22;;;;;;;66.65;28.63;;;7.10;99.90;;;;;;5033481;28;20059;-80
2022/12/22 08:07:49;;;;;;;54.38;27.70;;;7.10;99.90;;;;;;5037411;28;20115;-81
2022/12/22 08:10:15;;;;;;;101.90;34.30;;;7.00;99.90;;;;;;5036087;28;20037;-79
2022/12/22 08:12:41;;;;;;;229.57;42.22;;;6.90;99.90;;;;;;5038101;28;20037;-81
2022/12/22 08:15:08;;;;;;;60.47;24.48;;;6.90;99.90;;;;;;5034582;28;20123;-80
2022/12/22 08:17:34;;;;;;;76.43;31.45;;;6.90;99.90;;;;;;5034442;28;20037;-80
2022/12/22 08:20:00;;;;;;;75.57;30.13;;;6.80;99.90;;;;;;5034875;28;20040;-80
2022/12/22 08:22:25;;;;;;;90.72;36.25;;;6.80;99.90;;;;;;5018725;28;20041;-81
2022/12/22 08:24:55;;;;;;;141.13;56.75;;;6.80;99.90;;;;;;5031792;28;20040;-79
2022/12/22 08:27:39;;;;;;;96.47;36.42;;;6.80;99.90;;;;;;5032768;28;20474;-80
2022/12/22 08:30:06;;;;;;;110.47;32.97;;;7.00;99.90;;;;;;5036558;28;20124;-80
2022/12/22 08:32:33;;;;;;;103.45;33.50;;;7.10;99.90;;;;;;5031288;28;20033;-79
2022/12/22 08:34:58;;;;;;;94.78;29.50;;;7.20;99.90;;;;;;5027882;28;20118;-81
2022/12/22 08:37:28;;;;;;;103.55;30.40;;;7.20;99.90;;;;;;5035125;28;20041;-80
2022/12/22 08:40:00;;;;;;;94.30;28.35;;;7.30;99.90;;;;;;5052861;28;20134;-79
2022/12/22 08:42:26;;;;;;;79.60;27.63;;;7.30;99.90;;;;;;5033149;28;20044;-80
2022/12/22 08:44:52;;;;;;;76.55;26.33;;;7.30;99.90;;;;;;5033528;28;20180;-80
2022/12/22 08:47:21;;;;;;;76.50;25.80;;;7.40;99.90;;;;;;5059716;28;20597;-80
2022/12/22 08:49:47;;;;;;;67.50;24.73;;;7.40;99.90;;;;;;5042935;28;20040;-80
2022/12/22 08:52:13;;;;;;;63.58;24.63;;;7.40;99.90;;;;;;5032202;28;20037;-80
2022/12/22 08:54:39;;;;;;;65.25;23.17;;;7.40;99.90;;;;;;5063855;28;20047;-79
2022/12/22 08:57:05;;;;;;;58.97;22.52;;;7.40;99.90;;;;;;5054730;28;20044;-80
2022/12/22 08:59:30;;;;;;;56.53;20.70;;;7.40;99.90;;;;;;5040760;28;20045;-81
2022/12/22 09:01:56;;;;;;;49.38;19.17;;;7.40;99.90;;;;;;5060767;28;20396;-82
2022/12/22 09:04:24;;;;;;;48.58;19.38;;;7.40;99.90;;;;;;5062575;28;20110;-82
2022/12/22 09:06:52;;;;;;;46.47;18.98;;;7.30;99.90;;;;;;5053932;28;20045;-80
2022/12/22 09:09:19;;;;;;;46.22;17.92;;;7.30;99.90;;;;;;5019770;28;20038;-81
2022/12/22 09:11:44;;;;;;;41.20;17.58;;;7.30;99.90;;;;;;5041390;22;20042;-37
2022/12/22 09:14:11;;;;;;;41.85;17.77;;;7.30;99.90;;;;;;5016542;28;20406;-36
2022/12/22 09:16:40;;;;;;;45.70;18.52;;;7.30;99.90;;;;;;5015993;28;20184;-36
2022/12/22 09:19:07;;;;;;;46.08;18.83;;;7.30;99.90;;;;;;5015385;28;20040;-36
2022/12/22 09:21:33;;;;;;;42.25;16.95;;;7.30;99.90;;;;;;5015126;28;20116;-36
2022/12/22 09:23:58;;;;;;;43.10;16.65;;;7.30;99.90;;;;;;5015258;28;20038;-36
2022/12/22 09:26:26;;;;;;;41.55;18.10;;;7.30;99.90;;;;;;5015699;28;20041;-36
2022/12/22 09:28:52;;;;;;;41.40;17.00;;;7.30;99.90;;;;;;5016558;28;20030;-36
2022/12/22 09:31:19;;;;;;;41.28;16.85;;;7.20;99.90;;;;;;5015154;28;20132;-36
2022/12/22 09:33:48;;;;;;;45.97;17.85;;;7.20;99.90;;;;;;5014381;28;20053;-35
2022/12/22 09:36:17;;;;;;;46.47;18.42;;;7.20;99.90;;;;;;5013383;28;20042;-35
2022/12/22 09:38:46;;;;;;;47.13;17.20;;;7.30;99.90;;;;;;5013149;28;20050;-36
2022/12/22 09:41:17;;;;;;;47.42;18.10;;;7.30;99.90;;;;;;5014042;28;20038;-36
2022/12/22 09:43:43;;;;;;;47.03;16.90;;;7.30;99.90;;;;;;5014333;28;20254;-36
2022/12/22 09:46:22;;;;;;;45.88;17.73;;;7.30;99.90;;;;;;5014545;28;20482;-36
2022/12/22 09:48:48;;;;;;;44.25;17.00;;;7.30;99.90;;;;;;5015651;28;20515;-36
2022/12/22 09:51:16;;;;;;;39.08;16.67;;;7.30;99.90;;;;;;5015480;28;20038;-36
2022/12/22 09:53:49;;;;;;;45.20;15.95;;;7.30;99.90;;;;;;5015479;28;20120;-36
2022/12/22 09:56:16;;;;;;;35.70;13.75;;;7.30;99.90;;;;;;5014982;28;20060;-36
2022/12/22 09:58:43;;;;;;;34.13;14.23;;;7.30;99.90;;;;;;5015582;28;20042;-36
2022/12/22 10:01:33;;;;;;;33.90;14.02;;;7.30;99.90;;;;;;5015494;28;20080;-36
2022/12/22 10:04:01;;;;;;;44.03;15.55;;;7.30;99.90;;;;;;5015367;28;20089;-35
2022/12/22 10:06:50;;;;;;;37.65;15.23;;;7.30;99.90;;;;;;4999239;28;20085;-35
2022/12/22 10:09:23;;;;;;;39.67;16.42;;;7.30;99.90;;;;;;5015740;28;20034;-36
2022/12/22 10:11:54;;;;;;;39.60;14.23;;;7.30;99.90;;;;;;5014935;28;20034;-36
2022/12/22 10:14:32;;;;;;;41.10;14.98;;;7.30;99.90;;;;;;4999205;28;20042;-36
2022/12/22 10:17:18;;;;;;;38.60;15.82;;;7.40;99.90;;;;;;5015274;28;20509;-36
2022/12/22 10:19:44;;;;;;;43.38;18.17;;;7.50;99.90;;;;;;5014695;28;20045;-36
2022/12/22 10:22:28;;;;;;;44.05;16.95;;;7.60;99.90;;;;;;4998398;28;20049;-36
2022/12/22 10:24:54;;;;;;;;;;;7.60;99.90;;;;;;5015143;28;20037;-36
2022/12/22 10:27:25;;;;;;;47.97;21.25;;;7.60;99.90;;;;;;5016257;28;19921;-37
2022/12/22 10:29:51;;;;;;;52.35;23.80;;;7.70;99.90;;;;;;4998251;28;20077;-36
2022/12/22 10:32:20;;;;;;;30.98;14.35;;;7.70;99.90;;;;;;5014113;28;20446;-36
2022/12/22 10:34:59;;;;;;;42.58;19.17;;;7.60;99.90;;;;;;5011923;28;20541;-36
2022/12/22 10:37:37;;;;;;;62.65;32.53;;;7.60;99.90;;;;;;5011827;28;20072;-36
2022/12/22 10:40:22;;;;;;;48.17;23.17;;;7.60;99.90;;;;;;5011531;28;20073;-36
2022/12/22 10:42:54;;;;;;;33.30;15.07;;;7.60;99.90;;;;;;5011880;28;20041;-36
2022/12/22 10:45:24;;;;;;;30.98;15.88;;;7.50;99.90;;;;;;5011654;28;20368;-35
2022/12/22 10:47:53;;;;;;;38.33;19.75;;;7.50;99.90;;;;;;5011428;28;20053;-36
2022/12/22 10:50:20;;;;;;;33.75;17.25;;;7.50;99.90;;;;;;5011711;28;20033;-37
2022/12/22 10:52:57;;;;;;;39.45;19.45;;;7.40;99.90;;;;;;5011088;28;20074;-36
2022/12/22 10:55:27;;;;;;;65.50;30.85;;;7.40;99.90;;;;;;5011695;28;20038;-36
2022/12/22 10:58:08;;;;;;;33.13;16.58;;;7.30;99.90;;;;;;5011363;28;20060;-37
2022/12/22 11:00:38;;;;;;;39.85;20.50;;;7.50;99.90;;;;;;5011549;28;20550;-36
2022/12/22 11:03:06;;;;;;;30.48;17.00;;;7.60;99.90;;;;;;5011550;28;20624;-36
2022/12/22 11:05:32;;;;;;;34.63;18.40;;;7.70;99.90;;;;;;5010748;28;20346;-36
2022/12/22 11:08:15;;;;;;;30.38;15.45;;;7.70;99.90;;;;;;4994535;28;20046;-36
2022/12/22 11:10:50;;;;;;;29.10;16.42;;;7.90;99.90;;;;;;5011430;28;20394;-36
2022/12/22 11:13:34;;;;;;;27.83;15.05;;;7.90;99.90;;;;;;5010801;28;20479;-35
2022/12/22 11:16:19;;;;;;;19.42;11.63;;;7.90;99.90;;;;;;4998079;28;20046;-35
2022/12/22 11:19:14;;;;;;;34.97;20.00;;;7.70;99.90;;;;;;5002617;28;20037;-36
2022/12/22 11:22:12;;;;;;;18.77;11.80;;;7.60;99.90;;;;;;5010927;28;20100;-35
2022/12/22 11:25:20;;;;;;;23.05;14.20;;;7.60;99.90;;;;;;5000389;28;20078;-36
2022/12/22 11:28:01;;;;;;;21.13;11.52;;;7.70;99.90;;;;;;5002252;28;20064;-36
2022/12/22 11:30:34;;;;;;;18.90;10.35;;;7.90;99.90;;;;;;5011214;28;20120;-35
2022/12/22 11:33:15;;;;;;;15.82;10.35;;;8.00;99.90;;;;;;5011186;28;20041;-35
2022/12/22 11:35:46;;;;;;;21.35;12.80;;;8.10;99.90;;;;;;5011210;28;20049;-36
2022/12/22 11:38:30;;;;;;;22.33;12.02;;;8.20;99.90;;;;;;5011139;28;20046;-36
2022/12/22 11:41:45;;;;;;;18.40;10.88;;;8.60;99.90;;;;;;5007610;28;20046;-36
2022/12/22 11:44:11;;;;;;;;;;;9.10;99.90;;;;;;5004800;28;20061;-36
2022/12/22 11:46:55;;;;;;;15.32;8.98;;;9.50;99.90;;;;;;5007977;28;20267;-37
2022/12/22 11:49:28;;;;;;;17.10;10.15;;;9.80;99.90;;;;;;4991348;28;20093;-36
2022/12/22 11:52:53;;;;;;;15.43;9.40;;;10.00;99.90;;;;;;4991462;28;20515;-36
2022/12/22 11:55:43;;;;;;;18.65;9.50;;;10.00;99.90;;;;;;4976665;28;20554;-36
2022/12/22 11:58:25;;;;;;;12.93;8.18;;;10.20;99.90;;;;;;4991318;28;20034;-36
2022/12/22 12:00:57;;;;;;;14.00;9.13;;;10.40;99.90;;;;;;4991292;28;20391;-36
2022/12/22 12:03:54;;;;;;;17.65;8.75;;;10.60;99.90;;;;;;4991117;28;20117;-36
2022/12/22 12:06:52;;;;;;;18.02;8.60;;;11.10;99.90;;;;;;4991187;28;20051;-35
2022/12/22 12:09:42;;;;;;;12.70;7.15;;;11.40;99.90;;;;;;4991282;28;20078;-35
2022/12/22 12:12:44;;;;;;;14.75;8.85;;;11.10;99.90;;;;;;4974496;28;20381;-36
2022/12/22 12:15:25;;;;;;;16.08;7.53;;;10.60;99.90;;;;;;4993758;28;20138;-36
2022/12/22 12:18:05;;;;;;;16.33;8.20;;;10.20;99.90;;;;;;5010412;28;20191;-36
2022/12/22 12:20:31;;;;;;;17.50;7.45;;;10.00;99.90;;;;;;5010476;28;20053;-36
2022/12/22 12:23:09;;;;;;;13.73;8.10;;;9.80;99.90;;;;;;5023811;28;20045;-35
2022/12/22 12:26:06;;;;;;;15.43;7.70;;;9.70;99.90;;;;;;4997824;28;20038;-35
2022/12/22 12:28:41;;;;;;;16.38;8.82;;;9.50;99.90;;;;;;4993865;28;20050;-35
2022/12/22 12:31:11;;;;;;;16.35;8.00;;;9.40;99.90;;;;;;5010569;28;20038;-36
2022/12/22 12:33:48;;;;;;;14.57;7.80;;;9.30;99.90;;;;;;5010583;28;20084;-35
2022/12/22 12:36:13;;;;;;;14.57;7.78;;;9.30;99.90;;;;;;5010367;28;20042;-36
2022/12/22 12:39:33;;;;;;;18.08;7.90;;;9.30;99.90;;;;;;5010630;28;20042;-36
2022/12/22 12:42:17;;;;;;;19.67;9.25;;;9.30;99.90;;;;;;4976820;28;20474;-35
2022/12/22 12:44:44;;;;;;;17.95;8.32;;;9.30;99.90;;;;;;4976769;28;20174;-35
2022/12/22 12:47:40;;;;;;;17.80;8.75;;;9.40;99.90;;;;;;4999499;28;20054;-36
2022/12/22 12:50:33;;;;;;;18.20;8.13;;;9.60;99.90;;;;;;5007021;28;20052;-36
2022/12/22 12:53:04;;;;;;;14.93;7.90;;;9.90;99.90;;;;;;5016016;28;20045;-35
2022/12/22 12:55:39;;;;;;;14.63;7.43;;;10.10;99.90;;;;;;5016267;28;20073;-36
2022/12/22 12:58:10;;;;;;;16.75;6.85;;;10.10;99.90;;;;;;5017283;28;20494;-35
2022/12/22 13:00:36;;;;;;;15.88;6.70;;;10.00;99.90;;;;;;5016276;28;20398;-36
2022/12/22 13:03:33;;;;;;;17.30;6.85;;;10.00;99.90;;;;;;5014907;28;20057;-36
2022/12/22 13:06:01;;;;;;;14.30;6.20;;;10.00;99.90;;;;;;4999268;28;20042;-37
2022/12/22 13:08:30;;;;;;;12.82;6.82;;;9.90;99.90;;;;;;5015496;28;20053;-36
2022/12/22 13:10:56;;;;;;;14.57;5.88;;;9.90;99.90;;;;;;5016383;28;20038;-36
2022/12/22 13:13:22;;;;;;;12.65;5.80;;;9.80;99.90;;;;;;5016590;28;20030;-36
2022/12/22 13:16:08;;;;;;;11.00;5.85;;;9.90;99.90;;;;;;5025969;28;20080;-36
2022/12/22 13:18:34;;;;;;;14.23;5.35;;;9.80;99.90;;;;;;5015099;28;20034;-35
2022/12/22 13:21:21;;;;;;;10.23;5.68;;;9.80;99.90;;;;;;5016162;28;20125;-36
2022/12/22 13:23:53;;;;;;;13.82;5.65;;;9.70;99.90;;;;;;5015466;28;20129;-36
2022/12/22 13:26:30;;;;;;;10.70;5.25;;;9.70;99.90;;;;;;5015511;28;20045;-36
2022/12/22 13:29:02;;;;;;;11.68;4.97;;;9.70;99.90;;;;;;5021723;28;20042;-36
2022/12/22 13:31:31;;;;;;;14.77;6.93;;;9.70;99.90;;;;;;5015485;28;20041;-36
2022/12/22 13:34:16;;;;;;;8.35;5.13;;;9.70;99.90;;;;;;5015645;28;20475;-36
2022/12/22 13:36:43;;;;;;;11.43;4.95;;;9.90;99.90;;;;;;5016442;28;20121;-36
2022/12/22 13:39:13;;;;;;;11.88;4.78;;;10.30;99.90;;;;;;5014931;28;20041;-36
2022/12/22 13:41:42;;;;;;;9.45;4.07;;;10.40;99.90;;;;;;5014997;28;20505;-36
2022/12/22 13:44:16;;;;;;;6.75;3.75;;;10.50;99.90;;;;;;5015179;28;20042;-38
2022/12/22 13:46:42;;;;;;;8.63;3.80;;;10.70;99.90;;;;;;5014725;28;20100;-35
2022/12/22 13:49:14;;;;;;;8.80;3.72;;;11.00;99.90;;;;;;5016532;28;20034;-35
2022/12/22 13:51:41;;;;;;;8.63;3.80;;;11.20;99.90;;;;;;5014151;28;20487;-36
2022/12/22 13:54:21;;;;;;;7.45;3.50;;;11.10;99.90;;;;;;5015911;28;20038;-35
2022/12/22 13:56:53;;;;;;;9.43;4.15;;;11.00;99.90;;;;;;5014719;28;20128;-35
2022/12/22 13:59:44;;;;;;;8.35;4.32;;;10.80;99.90;;;;;;5014630;28;20037;-35
2022/12/22 14:02:11;;;;;;;8.52;4.60;;;10.60;99.90;;;;;;5016277;28;20042;-36
2022/12/22 14:04:40;;;;;;;9.48;5.13;;;10.50;99.90;;;;;;4998181;28;20092;-34
2022/12/22 14:07:14;;;;;;;12.52;5.50;;;10.40;99.90;;;;;;5014568;28;20097;-35
2022/12/22 14:09:47;;;;;;;12.18;5.18;;;10.20;99.90;;;;;;5014663;28;20037;-35
2022/12/22 14:12:17;;;;;;;9.90;5.28;;;10.00;99.90;;;;;;5014421;28;20108;-36
2022/12/22 14:14:45;;;;;;;12.52;5.30;;;9.80;99.90;;;;;;5014644;28;20244;-35
2022/12/22 14:17:34;;;;;;;11.55;4.80;;;9.70;99.90;;;;;;5015423;28;20084;-35
2022/12/22 14:20:28;;;;;;;30.40;13.85;;;9.50;99.90;;;;;;5014759;28;20483;-35
2022/12/22 14:23:11;;;;;;;23.87;10.93;;;9.30;99.90;;;;;;5011534;28;20176;-35
2022/12/22 14:25:40;;;;;;;17.60;9.00;;;9.20;99.90;;;;;;5014392;28;20301;-35
2022/12/22 14:28:28;;;;;;;26.88;15.20;;;9.10;99.90;;;;;;5014247;28;20125;-35
2022/12/22 14:30:59;;;;;;;19.42;8.68;;;9.00;99.90;;;;;;5013996;28;20115;-35
2022/12/22 14:33:32;;;;;;;17.52;9.10;;;9.00;99.90;;;;;;5014505;28;20038;-35
2022/12/22 14:36:14;;;;;;;23.83;12.75;;;8.90;99.90;;;;;;4997657;28;20100;-35
2022/12/22 14:38:43;;;;;;;24.63;15.88;;;8.90;99.90;;;;;;5013926;28;20052;-35
2022/12/22 14:41:40;;;;;;;26.15;16.48;;;8.80;99.90;;;;;;5013901;28;20041;-35
2022/12/22 14:44:02;;;;;;;12.07;6.18;;;8.80;99.90;;;;;;5015019;28;20049;-35
2022/12/22 14:46:28;;;;;;;10.90;6.30;;;8.70;99.90;;;;;;5013221;28;20085;-36
2022/12/22 14:48:57;;;;;;;11.85;6.25;;;8.70;99.90;;;;;;5015303;28;20125;-35
2022/12/22 14:51:23;;;;;;;15.20;7.97;;;8.60;99.90;;;;;;5013827;28;20041;-37
2022/12/22 14:53:58;;;;;;;13.77;7.05;;;8.60;99.90;;;;;;5013573;28;20073;-36
2022/12/22 14:56:26;;;;;;;12.95;7.10;;;8.60;99.90;;;;;;5013986;28;20490;-36
2022/12/22 14:59:08;;;;;;;14.75;7.63;;;8.50;99.90;;;;;;5013567;28;20046;-36
2022/12/22 15:01:34;;;;;;;13.95;8.05;;;8.50;99.90;;;;;;5013701;28;20387;-36
2022/12/22 15:04:19;;;;;;;13.68;7.63;;;8.40;99.90;;;;;;4996444;28;20046;-36
2022/12/22 15:06:47;;;;;;;10.57;7.53;;;8.30;99.90;;;;;;5013430;28;20046;-36
2022/12/22 15:09:12;;;;;;;16.80;8.52;;;8.20;99.90;;;;;;5014716;28;20040;-36
2022/12/22 15:11:43;;;;;;;14.10;8.43;;;8.20;99.90;;;;;;5012626;28;20120;-36
2022/12/22 15:14:14;;;;;;;14.10;8.63;;;8.10;99.90;;;;;;4994037;28;20133;-36
2022/12/22 15:16:40;;;;;;;15.02;8.63;;;8.00;99.90;;;;;;4994016;28;20042;-36
2022/12/22 15:19:06;;;;;;;14.57;9.25;;;8.00;99.90;;;;;;4994149;28;20387;-36
2022/12/22 15:21:35;;;;;;;19.38;10.65;;;8.00;99.90;;;;;;4995378;28;20090;-36
2022/12/22 15:24:00;;;;;;;16.10;9.20;;;8.00;99.90;;;;;;4995201;28;20042;-37
2022/12/22 15:26:26;;;;;;;16.67;10.00;;;8.00;99.90;;;;;;4995119;28;20383;-36
2022/12/22 15:28:52;;;;;;;15.88;8.77;;;7.90;99.90;;;;;;4995091;28;20038;-36
2022/12/22 15:31:18;;;;;;;16.20;8.80;;;8.00;99.90;;;;;;4993922;28;20070;-36
2022/12/22 15:33:44;;;;;;;17.52;10.35;;;8.00;99.90;;;;;;5000880;28;20418;-37
2022/12/22 15:36:12;;;;;;;17.13;11.20;;;8.00;99.90;;;;;;5013426;28;20038;-36
2022/12/22 15:38:39;;;;;;;18.30;11.88;;;8.10;99.90;;;;;;5013690;28;20037;-36
2022/12/22 15:41:06;;;;;;;18.48;12.70;;;8.10;99.90;;;;;;4993767;28;20459;-36
2022/12/22 15:43:34;;;;;;;21.00;13.90;;;8.10;99.90;;;;;;4984447;28;20048;-36
2022/12/22 15:46:00;;;;;;;19.17;13.15;;;8.10;99.90;;;;;;5013734;28;20044;-36
2022/12/22 15:48:35;;;;;;;21.60;13.25;;;8.10;99.90;;;;;;5013729;28;20394;-36
2022/12/22 15:51:04;;;;;;;20.10;15.05;;;8.10;99.90;;;;;;5014674;28;20034;-36
2022/12/22 15:53:31;;;;;;;20.67;14.02;;;8.20;99.90;;;;;;5013279;28;20052;-36
2022/12/22 15:55:57;;;;;;;17.98;14.32;;;8.10;99.90;;;;;;5013365;28;20475;-36
2022/12/22 15:58:27;;;;;;;24.10;14.25;;;8.10;99.90;;;;;;5014384;28;20288;-37
2022/12/22 16:00:54;;;;;;;18.40;14.57;;;8.10;99.90;;;;;;5014373;28;20075;-36
2022/12/22 16:03:19;;;;;;;21.13;13.70;;;8.00;99.90;;;;;;5013284;28;20046;-36
2022/12/22 16:05:45;;;;;;;19.95;14.65;;;8.00;99.90;;;;;;4996476;28;20130;-36
2022/12/22 16:08:18;;;;;;;18.10;13.98;;;8.00;99.90;;;;;;5012597;28;20097;-36
2022/12/22 16:10:45;;;;;;;20.88;12.40;;;7.90;99.90;;;;;;5008998;28;20038;-36
2022/12/22 16:13:14;;;;;;;20.77;12.70;;;7.90;99.90;;;;;;4993785;28;20559;-37
2022/12/22 16:15:40;;;;;;;20.63;12.57;;;7.90;99.90;;;;;;4998366;28;20043;-36
2022/12/22 16:18:09;;;;;;;22.60;14.02;;;7.90;99.90;;;;;;4997423;28;20046;-36
2022/12/22 16:20:39;;;;;;;18.73;12.82;;;7.90;99.90;;;;;;4997647;28;20480;-37
2022/12/22 16:23:12;;;;;;;20.95;17.17;;;7.90;99.90;;;;;;4997382;28;20132;-37
2022/12/22 16:25:38;;;;;;;34.10;25.38;;;7.80;99.90;;;;;;5013227;28;20038;-36
2022/12/22 16:28:06;;;;;;;21.95;13.35;;;7.80;99.90;;;;;;5023768;28;20060;-37
2022/12/22 16:30:33;;;;;;;21.58;13.73;;;7.80;99.90;;;;;;5018056;28;20121;-36
2022/12/22 16:33:00;;;;;;;21.77;13.93;;;7.80;99.90;;;;;;5016167;28;20102;-36
2022/12/22 16:35:28;;;;;;;21.13;13.43;;;7.80;99.90;;;;;;5017797;28;20136;-36